首页
METAR-TAF:

METAR-TAF

机场 :

圣纳泽尔, 法国

纬度: 47-19N, 经度: 002-10W, 海拔: 3米

当前天气观测

该预报发布于16分钟前的21:30 UTC
风速8节,风向东南
温度 9°C
湿度 93%
气压 1015 hPa
能见度10公里或以上
多云层高于1900英尺
阴天层高于3000英尺

METAR: LFRZ 292130Z AUTO 14008KT 9999 BKN019 OVC030 09/08 Q1015 BECMG 18015G25KT 4000 -RA BKN008 OVC020

时间: 22:46 (21:46 UTC)

预报

该预报发布于4小时和46分钟前的17:00 UTC
预报有效从29日的 18点(UTC)到 30日的 18点(UTC)
风速10节,风向南转西南
能见度10公里或以上
散云层高于2500英尺
散云层高于5000英尺
成为
从 29日的 21点(UTC)到 29日的 24点(UTC)
风速15节,风向,有时为25节阵风
能見度: 4000
多云层高于800英尺
阴天层高于2000英尺
小雨
短暂存在
从 30日的 03点(UTC)到 30日的 09点(UTC)
能見度: 2000
阴天层高于300英尺
成为
从 30日的 05点(UTC)到 30日的 08点(UTC)
风速15节,风向西转西南,有时为25节阵风
成为
从 30日的 16点(UTC)到 30日的 18点(UTC)
风速10节,风向西转西南
短暂存在
从 30日的 15点(UTC)到 30日的 18点(UTC)
能見度: 2000
多云层高于200英尺
小毛毛雨

TAF: LFRZ 291700Z 2918/3018 21010KT 9999 SCT025 SCT050 BECMG 2921/2924 18015G25KT 4000 -RA BKN008 OVC020 TEMPO 3003/3009 2000 RA OVC003 BECMG 3005/3008 24015G25KT BECMG 3016/3018 24010KT TEMPO 3015/3018 2000 -DZ BKN002

超过4000个机场的气象观测和天气预报(METAR&TAF报告)。

可查询的气象台以黄色和红色小点在地图上表示。

将鼠标移到小点上方,可查看气象台名称。

然后点击查看天气观测和预报。

如需切换地图:点击带黑十字的绿色按钮放大地图;点击带横线的绿色按钮缩小地图;或者点击绿色箭头查看邻近地区的地图。


METAR-TAF: